sensor_id;sensor_type;location;lat;lon;timestamp;P1;durP1;ratioP1;P2;durP2;ratioP2
60060;SDS011;45933;51.336;12.612;2024-03-08T00:01:09;35.97;;;20.67;;
60060;SDS011;45933;51.336;12.612;2024-03-08T00:03:34;32.60;;;21.23;;
60060;SDS011;45933;51.336;12.612;2024-03-08T00:06:00;36.90;;;22.40;;
60060;SDS011;45933;51.336;12.612;2024-03-08T00:08:25;31.13;;;20.07;;
60060;SDS011;45933;51.336;12.612;2024-03-08T00:10:50;32.83;;;20.93;;
60060;SDS011;45933;51.336;12.612;2024-03-08T00:13:15;34.17;;;22.07;;
60060;SDS011;45933;51.336;12.612;2024-03-08T00:15:41;33.47;;;22.10;;
60060;SDS011;45933;51.336;12.612;2024-03-08T00:18:06;34.17;;;20.60;;
60060;SDS011;45933;51.336;12.612;2024-03-08T00:20:31;32.07;;;20.80;;
60060;SDS011;45933;51.336;12.612;2024-03-08T00:22:57;35.40;;;21.43;;
60060;SDS011;45933;51.336;12.612;2024-03-08T00:25:22;34.07;;;21.47;;
60060;SDS011;45933;51.336;12.612;2024-03-08T00:27:48;33.27;;;21.63;;
60060;SDS011;45933;51.336;12.612;2024-03-08T00:30:14;33.60;;;21.80;;
60060;SDS011;45933;51.336;12.612;2024-03-08T00:32:39;32.87;;;20.57;;
60060;SDS011;45933;51.336;12.612;2024-03-08T00:35:05;30.57;;;20.53;;
60060;SDS011;45933;51.336;12.612;2024-03-08T00:37:33;34.60;;;21.80;;
60060;SDS011;45933;51.336;12.612;2024-03-08T00:40:01;32.40;;;21.03;;
60060;SDS011;45933;51.336;12.612;2024-03-08T00:42:27;34.53;;;21.17;;
60060;SDS011;45933;51.336;12.612;2024-03-08T00:44:52;35.00;;;21.70;;
60060;SDS011;45933;51.336;12.612;2024-03-08T00:47:17;32.00;;;20.97;;
60060;SDS011;45933;51.336;12.612;2024-03-08T00:49:43;33.20;;;21.13;;
60060;SDS011;45933;51.336;12.612;2024-03-08T00:52:08;32.40;;;20.17;;
60060;SDS011;45933;51.336;12.612;2024-03-08T00:54:34;34.30;;;20.73;;
60060;SDS011;45933;51.336;12.612;2024-03-08T00:57:01;32.63;;;20.17;;
60060;SDS011;45933;51.336;12.612;2024-03-08T00:59:28;34.07;;;20.70;;
60060;SDS011;45933;51.336;12.612;2024-03-08T01:01:53;32.43;;;20.53;;
60060;SDS011;45933;51.336;12.612;2024-03-08T01:04:18;33.07;;;20.30;;
60060;SDS011;45933;51.336;12.612;2024-03-08T01:06:45;31.83;;;20.50;;
60060;SDS011;45933;51.336;12.612;2024-03-08T01:09:12;33.53;;;21.30;;
60060;SDS011;45933;51.336;12.612;2024-03-08T01:11:37;33.30;;;20.67;;
60060;SDS011;45933;51.336;12.612;2024-03-08T01:14:03;32.83;;;20.70;;
60060;SDS011;45933;51.336;12.612;2024-03-08T01:16:28;35.63;;;20.83;;
60060;SDS011;45933;51.336;12.612;2024-03-08T01:18:53;30.10;;;19.97;;
60060;SDS011;45933;51.336;12.612;2024-03-08T01:21:19;34.73;;;22.23;;
60060;SDS011;45933;51.336;12.612;2024-03-08T01:23:44;31.37;;;19.73;;
60060;SDS011;45933;51.336;12.612;2024-03-08T01:26:09;36.03;;;20.97;;
60060;SDS011;45933;51.336;12.612;2024-03-08T01:28:34;31.13;;;21.07;;
60060;SDS011;45933;51.336;12.612;2024-03-08T01:31:00;33.27;;;21.30;;
60060;SDS011;45933;51.336;12.612;2024-03-08T01:33:26;32.23;;;20.63;;
60060;SDS011;45933;51.336;12.612;2024-03-08T01:35:52;30.13;;;19.77;;
60060;SDS011;45933;51.336;12.612;2024-03-08T01:38:18;35.30;;;21.80;;
60060;SDS011;45933;51.336;12.612;2024-03-08T01:40:46;32.93;;;20.37;;
60060;SDS011;45933;51.336;12.612;2024-03-08T01:43:21;31.73;;;20.57;;
60060;SDS011;45933;51.336;12.612;2024-03-08T01:45:54;31.30;;;19.87;;
60060;SDS011;45933;51.336;12.612;2024-03-08T01:48:24;31.17;;;20.43;;
60060;SDS011;45933;51.336;12.612;2024-03-08T01:50:50;34.37;;;20.80;;
60060;SDS011;45933;51.336;12.612;2024-03-08T01:53:17;37.23;;;22.70;;
60060;SDS011;45933;51.336;12.612;2024-03-08T01:55:44;33.57;;;22.10;;
60060;SDS011;45933;51.336;12.612;2024-03-08T01:58:11;33.97;;;21.87;;
60060;SDS011;45933;51.336;12.612;2024-03-08T02:00:39;38.70;;;23.70;;
60060;SDS011;45933;51.336;12.612;2024-03-08T02:03:07;51.90;;;31.87;;
60060;SDS011;45933;51.336;12.612;2024-03-08T02:05:32;59.60;;;37.63;;
60060;SDS011;45933;51.336;12.612;2024-03-08T02:07:57;56.87;;;33.93;;
60060;SDS011;45933;51.336;12.612;2024-03-08T02:10:23;45.70;;;29.27;;
60060;SDS011;45933;51.336;12.612;2024-03-08T02:12:48;42.43;;;26.93;;
60060;SDS011;45933;51.336;12.612;2024-03-08T02:15:14;40.07;;;24.03;;
60060;SDS011;45933;51.336;12.612;2024-03-08T02:17:40;41.03;;;22.40;;
60060;SDS011;45933;51.336;12.612;2024-03-08T02:20:05;34.23;;;21.13;;
60060;SDS011;45933;51.336;12.612;2024-03-08T02:22:30;35.30;;;22.07;;
60060;SDS011;45933;51.336;12.612;2024-03-08T02:24:59;39.50;;;23.33;;
60060;SDS011;45933;51.336;12.612;2024-03-08T02:27:26;36.03;;;22.17;;
60060;SDS011;45933;51.336;12.612;2024-03-08T02:29:54;36.27;;;21.53;;
60060;SDS011;45933;51.336;12.612;2024-03-08T02:32:21;35.93;;;21.27;;
60060;SDS011;45933;51.336;12.612;2024-03-08T02:34:49;40.57;;;23.77;;
60060;SDS011;45933;51.336;12.612;2024-03-08T02:37:15;37.97;;;23.37;;
60060;SDS011;45933;51.336;12.612;2024-03-08T02:39:41;41.90;;;23.03;;
60060;SDS011;45933;51.336;12.612;2024-03-08T02:42:06;41.17;;;23.67;;
60060;SDS011;45933;51.336;12.612;2024-03-08T02:44:32;37.87;;;20.83;;
60060;SDS011;45933;51.336;12.612;2024-03-08T02:46:58;37.50;;;22.90;;
60060;SDS011;45933;51.336;12.612;2024-03-08T02:49:24;41.20;;;24.23;;
60060;SDS011;45933;51.336;12.612;2024-03-08T02:51:51;39.57;;;22.80;;
60060;SDS011;45933;51.336;12.612;2024-03-08T02:54:16;38.80;;;25.03;;
60060;SDS011;45933;51.336;12.612;2024-03-08T02:56:42;42.93;;;24.30;;
60060;SDS011;45933;51.336;12.612;2024-03-08T02:59:07;35.47;;;21.70;;
60060;SDS011;45933;51.336;12.612;2024-03-08T03:01:33;42.90;;;26.63;;
60060;SDS011;45933;51.336;12.612;2024-03-08T03:03:59;49.83;;;31.50;;
60060;SDS011;45933;51.336;12.612;2024-03-08T03:06:25;38.60;;;24.53;;
60060;SDS011;45933;51.336;12.612;2024-03-08T03:08:50;34.50;;;21.40;;
60060;SDS011;45933;51.336;12.612;2024-03-08T03:11:16;37.03;;;21.37;;
60060;SDS011;45933;51.336;12.612;2024-03-08T03:13:42;32.20;;;20.53;;
60060;SDS011;45933;51.336;12.612;2024-03-08T03:16:16;33.63;;;20.60;;
60060;SDS011;45933;51.336;12.612;2024-03-08T03:18:43;33.90;;;20.53;;
60060;SDS011;45933;51.336;12.612;2024-03-08T03:21:08;36.17;;;21.57;;
60060;SDS011;45933;51.336;12.612;2024-03-08T03:23:34;34.57;;;20.93;;
60060;SDS011;45933;51.336;12.612;2024-03-08T03:25:59;35.47;;;20.17;;
60060;SDS011;45933;51.336;12.612;2024-03-08T03:28:25;35.00;;;21.57;;
60060;SDS011;45933;51.336;12.612;2024-03-08T03:30:51;37.27;;;21.60;;
60060;SDS011;45933;51.336;12.612;2024-03-08T03:33:17;37.03;;;22.07;;
60060;SDS011;45933;51.336;12.612;2024-03-08T03:35:43;38.17;;;22.17;;
60060;SDS011;45933;51.336;12.612;2024-03-08T03:38:09;36.93;;;22.50;;
60060;SDS011;45933;51.336;12.612;2024-03-08T03:40:34;42.17;;;24.30;;
60060;SDS011;45933;51.336;12.612;2024-03-08T03:43:01;36.77;;;22.80;;
60060;SDS011;45933;51.336;12.612;2024-03-08T03:45:27;37.73;;;23.37;;
60060;SDS011;45933;51.336;12.612;2024-03-08T03:47:53;35.93;;;21.80;;
60060;SDS011;45933;51.336;12.612;2024-03-08T03:50:18;38.73;;;23.53;;
60060;SDS011;45933;51.336;12.612;2024-03-08T03:52:45;38.17;;;23.50;;
60060;SDS011;45933;51.336;12.612;2024-03-08T03:55:11;43.00;;;23.40;;
60060;SDS011;45933;51.336;12.612;2024-03-08T03:57:38;40.10;;;24.17;;
60060;SDS011;45933;51.336;12.612;2024-03-08T04:00:03;40.03;;;23.57;;
60060;SDS011;45933;51.336;12.612;2024-03-08T04:02:30;41.10;;;23.97;;
60060;SDS011;45933;51.336;12.612;2024-03-08T04:04:55;43.63;;;24.60;;
60060;SDS011;45933;51.336;12.612;2024-03-08T04:07:20;44.70;;;25.13;;
60060;SDS011;45933;51.336;12.612;2024-03-08T04:09:46;50.10;;;27.93;;
60060;SDS011;45933;51.336;12.612;2024-03-08T04:12:11;44.33;;;26.40;;
60060;SDS011;45933;51.336;12.612;2024-03-08T04:14:38;48.63;;;25.53;;
60060;SDS011;45933;51.336;12.612;2024-03-08T04:17:04;50.83;;;28.73;;
60060;SDS011;45933;51.336;12.612;2024-03-08T04:19:31;53.90;;;30.03;;
60060;SDS011;45933;51.336;12.612;2024-03-08T04:21:56;50.53;;;28.57;;
60060;SDS011;45933;51.336;12.612;2024-03-08T04:24:27;55.80;;;33.47;;
60060;SDS011;45933;51.336;12.612;2024-03-08T04:26:53;54.70;;;32.17;;
60060;SDS011;45933;51.336;12.612;2024-03-08T04:29:18;52.93;;;30.67;;
60060;SDS011;45933;51.336;12.612;2024-03-08T04:31:44;56.97;;;32.43;;
60060;SDS011;45933;51.336;12.612;2024-03-08T04:34:09;42.37;;;25.77;;
60060;SDS011;45933;51.336;12.612;2024-03-08T04:36:35;40.27;;;24.23;;
60060;SDS011;45933;51.336;12.612;2024-03-08T04:39:00;35.50;;;23.93;;
60060;SDS011;45933;51.336;12.612;2024-03-08T04:41:25;39.77;;;26.10;;
60060;SDS011;45933;51.336;12.612;2024-03-08T04:43:51;41.73;;;26.97;;
60060;SDS011;45933;51.336;12.612;2024-03-08T04:46:17;60.77;;;37.43;;
60060;SDS011;45933;51.336;12.612;2024-03-08T04:48:42;59.10;;;39.40;;
60060;SDS011;45933;51.336;12.612;2024-03-08T04:51:08;54.70;;;39.80;;
60060;SDS011;45933;51.336;12.612;2024-03-08T04:53:34;43.20;;;29.40;;
60060;SDS011;45933;51.336;12.612;2024-03-08T04:55:59;45.80;;;28.73;;
60060;SDS011;45933;51.336;12.612;2024-03-08T04:58:25;44.80;;;27.30;;
60060;SDS011;45933;51.336;12.612;2024-03-08T05:00:50;49.17;;;30.40;;
60060;SDS011;45933;51.336;12.612;2024-03-08T05:03:16;44.20;;;27.87;;
60060;SDS011;45933;51.336;12.612;2024-03-08T05:05:41;46.20;;;28.50;;
60060;SDS011;45933;51.336;12.612;2024-03-08T05:08:06;45.67;;;27.17;;
60060;SDS011;45933;51.336;12.612;2024-03-08T05:10:32;43.20;;;27.93;;
60060;SDS011;45933;51.336;12.612;2024-03-08T05:12:57;40.77;;;27.07;;
60060;SDS011;45933;51.336;12.612;2024-03-08T05:15:22;44.30;;;26.47;;
60060;SDS011;45933;51.336;12.612;2024-03-08T05:17:48;41.20;;;25.33;;
60060;SDS011;45933;51.336;12.612;2024-03-08T05:20:13;45.27;;;27.10;;
60060;SDS011;45933;51.336;12.612;2024-03-08T05:22:39;44.63;;;28.53;;
60060;SDS011;45933;51.336;12.612;2024-03-08T05:25:05;41.90;;;26.90;;
60060;SDS011;45933;51.336;12.612;2024-03-08T05:27:33;46.50;;;29.50;;
60060;SDS011;45933;51.336;12.612;2024-03-08T05:29:58;41.47;;;27.60;;
60060;SDS011;45933;51.336;12.612;2024-03-08T05:32:23;49.47;;;30.63;;
60060;SDS011;45933;51.336;12.612;2024-03-08T05:34:49;50.27;;;30.70;;
60060;SDS011;45933;51.336;12.612;2024-03-08T05:37:15;49.50;;;31.67;;
60060;SDS011;45933;51.336;12.612;2024-03-08T05:39:40;46.50;;;28.03;;
60060;SDS011;45933;51.336;12.612;2024-03-08T05:42:06;47.50;;;29.63;;
60060;SDS011;45933;51.336;12.612;2024-03-08T05:44:33;44.57;;;25.73;;
60060;SDS011;45933;51.336;12.612;2024-03-08T05:46:59;45.57;;;27.83;;
60060;SDS011;45933;51.336;12.612;2024-03-08T05:49:24;48.70;;;27.97;;
60060;SDS011;45933;51.336;12.612;2024-03-08T05:51:49;43.23;;;27.40;;
60060;SDS011;45933;51.336;12.612;2024-03-08T05:54:16;59.63;;;35.47;;
60060;SDS011;45933;51.336;12.612;2024-03-08T05:56:41;45.43;;;27.50;;
60060;SDS011;45933;51.336;12.612;2024-03-08T05:59:08;49.77;;;30.27;;
60060;SDS011;45933;51.336;12.612;2024-03-08T06:01:34;64.03;;;37.30;;
60060;SDS011;45933;51.336;12.612;2024-03-08T06:04:01;51.67;;;30.20;;
60060;SDS011;45933;51.336;12.612;2024-03-08T06:06:27;61.73;;;38.73;;
60060;SDS011;45933;51.336;12.612;2024-03-08T06:08:52;65.63;;;39.63;;
60060;SDS011;45933;51.336;12.612;2024-03-08T06:11:18;66.00;;;39.97;;
60060;SDS011;45933;51.336;12.612;2024-03-08T06:13:45;69.30;;;40.77;;
60060;SDS011;45933;51.336;12.612;2024-03-08T06:16:10;70.07;;;42.73;;
60060;SDS011;45933;51.336;12.612;2024-03-08T06:18:36;63.67;;;39.23;;
60060;SDS011;45933;51.336;12.612;2024-03-08T06:21:05;63.73;;;39.83;;
60060;SDS011;45933;51.336;12.612;2024-03-08T06:23:31;56.40;;;36.67;;
60060;SDS011;45933;51.336;12.612;2024-03-08T06:26:03;61.67;;;38.50;;
60060;SDS011;45933;51.336;12.612;2024-03-08T06:28:32;63.17;;;38.73;;
60060;SDS011;45933;51.336;12.612;2024-03-08T06:30:57;54.43;;;32.13;;
60060;SDS011;45933;51.336;12.612;2024-03-08T06:33:23;61.00;;;36.30;;
60060;SDS011;45933;51.336;12.612;2024-03-08T06:35:51;54.00;;;34.07;;
60060;SDS011;45933;51.336;12.612;2024-03-08T06:38:16;51.77;;;31.10;;
60060;SDS011;45933;51.336;12.612;2024-03-08T06:40:42;47.43;;;29.27;;
60060;SDS011;45933;51.336;12.612;2024-03-08T06:43:07;59.07;;;34.90;;
60060;SDS011;45933;51.336;12.612;2024-03-08T06:45:32;58.30;;;32.20;;
60060;SDS011;45933;51.336;12.612;2024-03-08T06:47:57;55.07;;;32.53;;
60060;SDS011;45933;51.336;12.612;2024-03-08T06:50:23;57.17;;;31.37;;
60060;SDS011;45933;51.336;12.612;2024-03-08T06:52:48;56.60;;;31.77;;
60060;SDS011;45933;51.336;12.612;2024-03-08T06:55:18;49.40;;;30.10;;
60060;SDS011;45933;51.336;12.612;2024-03-08T06:57:44;45.87;;;28.90;;
60060;SDS011;45933;51.336;12.612;2024-03-08T07:00:09;47.07;;;27.93;;
60060;SDS011;45933;51.336;12.612;2024-03-08T07:02:37;52.87;;;31.83;;
60060;SDS011;45933;51.336;12.612;2024-03-08T07:05:04;48.53;;;29.10;;
60060;SDS011;45933;51.336;12.612;2024-03-08T07:07:30;52.93;;;32.23;;
60060;SDS011;45933;51.336;12.612;2024-03-08T07:09:56;55.17;;;32.03;;
60060;SDS011;45933;51.336;12.612;2024-03-08T07:12:22;55.00;;;30.40;;
60060;SDS011;45933;51.336;12.612;2024-03-08T07:14:48;45.93;;;27.13;;
60060;SDS011;45933;51.336;12.612;2024-03-08T07:17:13;44.97;;;26.90;;
60060;SDS011;45933;51.336;12.612;2024-03-08T07:19:38;50.43;;;28.90;;
60060;SDS011;45933;51.336;12.612;2024-03-08T07:22:04;50.20;;;27.90;;
60060;SDS011;45933;51.336;12.612;2024-03-08T07:24:33;63.27;;;34.53;;
60060;SDS011;45933;51.336;12.612;2024-03-08T07:27:20;46.60;;;27.50;;
60060;SDS011;45933;51.336;12.612;2024-03-08T07:29:46;47.07;;;27.17;;
60060;SDS011;45933;51.336;12.612;2024-03-08T07:32:11;46.73;;;27.63;;
60060;SDS011;45933;51.336;12.612;2024-03-08T07:34:46;55.30;;;28.50;;
60060;SDS011;45933;51.336;12.612;2024-03-08T07:37:13;42.83;;;26.53;;
60060;SDS011;45933;51.336;12.612;2024-03-08T07:39:39;48.67;;;27.23;;
60060;SDS011;45933;51.336;12.612;2024-03-08T07:42:04;45.53;;;26.90;;
60060;SDS011;45933;51.336;12.612;2024-03-08T07:44:30;45.80;;;27.80;;
60060;SDS011;45933;51.336;12.612;2024-03-08T07:46:56;44.47;;;27.17;;
60060;SDS011;45933;51.336;12.612;2024-03-08T07:49:22;46.57;;;26.90;;
60060;SDS011;45933;51.336;12.612;2024-03-08T07:51:47;42.20;;;27.20;;
60060;SDS011;45933;51.336;12.612;2024-03-08T07:54:14;40.83;;;25.80;;
60060;SDS011;45933;51.336;12.612;2024-03-08T07:56:39;46.17;;;26.33;;
60060;SDS011;45933;51.336;12.612;2024-03-08T07:59:04;46.50;;;27.80;;
60060;SDS011;45933;51.336;12.612;2024-03-08T08:01:30;43.33;;;28.37;;
60060;SDS011;45933;51.336;12.612;2024-03-08T08:03:55;45.77;;;28.97;;
60060;SDS011;45933;51.336;12.612;2024-03-08T08:06:21;43.53;;;27.77;;
60060;SDS011;45933;51.336;12.612;2024-03-08T08:08:47;45.47;;;26.63;;
60060;SDS011;45933;51.336;12.612;2024-03-08T08:11:12;44.47;;;26.50;;
60060;SDS011;45933;51.336;12.612;2024-03-08T08:13:37;48.90;;;27.77;;
60060;SDS011;45933;51.336;12.612;2024-03-08T08:16:04;42.77;;;27.03;;
60060;SDS011;45933;51.336;12.612;2024-03-08T08:18:31;42.90;;;27.00;;
60060;SDS011;45933;51.336;12.612;2024-03-08T08:20:58;45.60;;;27.53;;
60060;SDS011;45933;51.336;12.612;2024-03-08T08:23:25;46.73;;;27.47;;
60060;SDS011;45933;51.336;12.612;2024-03-08T08:25:50;49.53;;;29.10;;
60060;SDS011;45933;51.336;12.612;2024-03-08T08:28:16;45.70;;;29.03;;
60060;SDS011;45933;51.336;12.612;2024-03-08T08:30:42;53.70;;;31.23;;
60060;SDS011;45933;51.336;12.612;2024-03-08T08:33:08;45.37;;;28.73;;
60060;SDS011;45933;51.336;12.612;2024-03-08T08:35:33;41.00;;;26.37;;
60060;SDS011;45933;51.336;12.612;2024-03-08T08:37:59;40.00;;;26.67;;
60060;SDS011;45933;51.336;12.612;2024-03-08T08:40:24;36.90;;;25.53;;
60060;SDS011;45933;51.336;12.612;2024-03-08T08:42:50;35.97;;;24.92;;
60060;SDS011;45933;51.336;12.612;2024-03-08T08:45:17;36.92;;;23.77;;
60060;SDS011;45933;51.336;12.612;2024-03-08T08:47:43;34.60;;;23.10;;
60060;SDS011;45933;51.336;12.612;2024-03-08T08:50:10;33.17;;;24.00;;
60060;SDS011;45933;51.336;12.612;2024-03-08T08:52:37;34.85;;;23.98;;
60060;SDS011;45933;51.336;12.612;2024-03-08T08:55:03;33.72;;;24.17;;
60060;SDS011;45933;51.336;12.612;2024-03-08T08:57:29;33.80;;;23.70;;
60060;SDS011;45933;51.336;12.612;2024-03-08T08:59:55;35.22;;;24.13;;
60060;SDS011;45933;51.336;12.612;2024-03-08T09:02:21;33.88;;;23.60;;
60060;SDS011;45933;51.336;12.612;2024-03-08T09:04:46;33.65;;;24.38;;
60060;SDS011;45933;51.336;12.612;2024-03-08T09:07:13;30.95;;;23.13;;
60060;SDS011;45933;51.336;12.612;2024-03-08T09:09:38;29.55;;;22.98;;
60060;SDS011;45933;51.336;12.612;2024-03-08T09:12:04;31.55;;;24.52;;
60060;SDS011;45933;51.336;12.612;2024-03-08T09:14:29;29.67;;;22.83;;
60060;SDS011;45933;51.336;12.612;2024-03-08T09:16:54;32.92;;;23.90;;
60060;SDS011;45933;51.336;12.612;2024-03-08T09:19:20;30.00;;;23.17;;
60060;SDS011;45933;51.336;12.612;2024-03-08T09:21:45;32.00;;;23.92;;
60060;SDS011;45933;51.336;12.612;2024-03-08T09:24:11;29.40;;;22.38;;
60060;SDS011;45933;51.336;12.612;2024-03-08T09:26:37;28.02;;;22.60;;
60060;SDS011;45933;51.336;12.612;2024-03-08T09:29:02;30.40;;;22.85;;
60060;SDS011;45933;51.336;12.612;2024-03-08T09:31:28;30.45;;;22.70;;
60060;SDS011;45933;51.336;12.612;2024-03-08T09:33:53;28.50;;;22.85;;
60060;SDS011;45933;51.336;12.612;2024-03-08T09:36:18;29.27;;;22.92;;
60060;SDS011;45933;51.336;12.612;2024-03-08T09:38:44;28.05;;;22.40;;
60060;SDS011;45933;51.336;12.612;2024-03-08T09:41:09;27.00;;;22.48;;
60060;SDS011;45933;51.336;12.612;2024-03-08T09:43:35;27.83;;;22.15;;
60060;SDS011;45933;51.336;12.612;2024-03-08T09:46:01;27.95;;;22.75;;
60060;SDS011;45933;51.336;12.612;2024-03-08T09:48:27;31.30;;;23.63;;
60060;SDS011;45933;51.336;12.612;2024-03-08T09:50:54;28.60;;;22.10;;
60060;SDS011;45933;51.336;12.612;2024-03-08T09:53:20;29.75;;;23.58;;
60060;SDS011;45933;51.336;12.612;2024-03-08T09:55:47;29.75;;;23.75;;
60060;SDS011;45933;51.336;12.612;2024-03-08T09:58:14;31.33;;;24.38;;
60060;SDS011;45933;51.336;12.612;2024-03-08T10:00:42;32.45;;;24.33;;
60060;SDS011;45933;51.336;12.612;2024-03-08T10:03:08;29.98;;;23.83;;
60060;SDS011;45933;51.336;12.612;2024-03-08T10:05:33;28.10;;;23.08;;
60060;SDS011;45933;51.336;12.612;2024-03-08T10:07:59;27.98;;;23.05;;
60060;SDS011;45933;51.336;12.612;2024-03-08T10:10:25;30.23;;;24.42;;
60060;SDS011;45933;51.336;12.612;2024-03-08T10:12:50;32.42;;;23.33;;
60060;SDS011;45933;51.336;12.612;2024-03-08T10:15:16;32.10;;;24.45;;
60060;SDS011;45933;51.336;12.612;2024-03-08T10:17:41;29.70;;;23.48;;
60060;SDS011;45933;51.336;12.612;2024-03-08T10:20:17;34.70;;;23.08;;
60060;SDS011;45933;51.336;12.612;2024-03-08T10:22:44;35.38;;;24.40;;
60060;SDS011;45933;51.336;12.612;2024-03-08T10:25:12;29.17;;;23.95;;
60060;SDS011;45933;51.336;12.612;2024-03-08T10:27:41;28.23;;;24.13;;
60060;SDS011;45933;51.336;12.612;2024-03-08T10:30:14;30.55;;;23.90;;
60060;SDS011;45933;51.336;12.612;2024-03-08T10:32:41;28.27;;;22.60;;
60060;SDS011;45933;51.336;12.612;2024-03-08T10:35:07;33.65;;;25.33;;
60060;SDS011;45933;51.336;12.612;2024-03-08T10:37:40;30.92;;;25.23;;
60060;SDS011;45933;51.336;12.612;2024-03-08T10:40:15;28.27;;;23.88;;
60060;SDS011;45933;51.336;12.612;2024-03-08T10:42:52;29.20;;;23.50;;
60060;SDS011;45933;51.336;12.612;2024-03-08T10:45:38;26.83;;;22.17;;
60060;SDS011;45933;51.336;12.612;2024-03-08T10:50:41;28.98;;;23.75;;
60060;SDS011;45933;51.336;12.612;2024-03-08T10:53:10;27.33;;;22.33;;
60060;SDS011;45933;51.336;12.612;2024-03-08T10:55:37;27.10;;;22.15;;
60060;SDS011;45933;51.336;12.612;2024-03-08T10:58:06;26.25;;;21.63;;
60060;SDS011;45933;51.336;12.612;2024-03-08T11:00:32;28.48;;;22.48;;
60060;SDS011;45933;51.336;12.612;2024-03-08T11:02:57;28.92;;;24.10;;
60060;SDS011;45933;51.336;12.612;2024-03-08T11:05:35;26.05;;;21.85;;
60060;SDS011;45933;51.336;12.612;2024-03-08T11:08:05;25.88;;;22.38;;
60060;SDS011;45933;51.336;12.612;2024-03-08T11:10:48;27.65;;;21.55;;
60060;SDS011;45933;51.336;12.612;2024-03-08T11:16:11;25.67;;;20.85;;
60060;SDS011;45933;51.336;12.612;2024-03-08T11:19:00;25.60;;;21.42;;
60060;SDS011;45933;51.336;12.612;2024-03-08T11:21:31;24.55;;;20.95;;
60060;SDS011;45933;51.336;12.612;2024-03-08T11:24:11;25.20;;;20.48;;
60060;SDS011;45933;51.336;12.612;2024-03-08T11:26:38;23.77;;;20.35;;
60060;SDS011;45933;51.336;12.612;2024-03-08T11:32:05;24.40;;;19.63;;
60060;SDS011;45933;51.336;12.612;2024-03-08T11:34:32;27.40;;;21.25;;
60060;SDS011;45933;51.336;12.612;2024-03-08T11:37:00;25.80;;;21.05;;
60060;SDS011;45933;51.336;12.612;2024-03-08T11:39:28;26.63;;;21.42;;
60060;SDS011;45933;51.336;12.612;2024-03-08T11:41:55;23.15;;;19.60;;
60060;SDS011;45933;51.336;12.612;2024-03-08T11:44:21;22.50;;;19.55;;
60060;SDS011;45933;51.336;12.612;2024-03-08T11:46:46;28.02;;;19.90;;
60060;SDS011;45933;51.336;12.612;2024-03-08T11:49:14;24.38;;;19.35;;
60060;SDS011;45933;51.336;12.612;2024-03-08T11:51:40;23.17;;;20.48;;
60060;SDS011;45933;51.336;12.612;2024-03-08T11:54:06;26.98;;;21.70;;
60060;SDS011;45933;51.336;12.612;2024-03-08T11:56:37;27.88;;;22.63;;
60060;SDS011;45933;51.336;12.612;2024-03-08T11:59:02;26.35;;;21.67;;
60060;SDS011;45933;51.336;12.612;2024-03-08T12:01:28;24.08;;;20.75;;
60060;SDS011;45933;51.336;12.612;2024-03-08T12:03:53;25.45;;;20.88;;
60060;SDS011;45933;51.336;12.612;2024-03-08T12:06:23;26.42;;;21.65;;
60060;SDS011;45933;51.336;12.612;2024-03-08T12:08:49;24.55;;;20.55;;
60060;SDS011;45933;51.336;12.612;2024-03-08T12:11:16;24.33;;;20.73;;
60060;SDS011;45933;51.336;12.612;2024-03-08T12:13:44;24.38;;;20.77;;
60060;SDS011;45933;51.336;12.612;2024-03-08T12:16:11;24.90;;;21.25;;
60060;SDS011;45933;51.336;12.612;2024-03-08T12:18:37;25.23;;;20.65;;
60060;SDS011;45933;51.336;12.612;2024-03-08T12:21:04;25.42;;;20.95;;
60060;SDS011;45933;51.336;12.612;2024-03-08T12:23:32;26.05;;;21.70;;
60060;SDS011;45933;51.336;12.612;2024-03-08T12:26:08;25.67;;;21.10;;
60060;SDS011;45933;51.336;12.612;2024-03-08T12:28:41;26.25;;;21.60;;
60060;SDS011;45933;51.336;12.612;2024-03-08T12:31:09;25.90;;;21.33;;
60060;SDS011;45933;51.336;12.612;2024-03-08T12:33:52;25.20;;;22.27;;
60060;SDS011;45933;51.336;12.612;2024-03-08T12:36:19;26.50;;;22.05;;
60060;SDS011;45933;51.336;12.612;2024-03-08T12:38:48;25.52;;;21.30;;
60060;SDS011;45933;51.336;12.612;2024-03-08T12:41:17;27.60;;;22.85;;
60060;SDS011;45933;51.336;12.612;2024-03-08T12:43:44;26.60;;;22.98;;
60060;SDS011;45933;51.336;12.612;2024-03-08T12:46:16;27.20;;;23.08;;
60060;SDS011;45933;51.336;12.612;2024-03-08T12:48:45;29.25;;;22.15;;
60060;SDS011;45933;51.336;12.612;2024-03-08T12:51:14;25.08;;;21.20;;
60060;SDS011;45933;51.336;12.612;2024-03-08T12:53:40;24.20;;;20.80;;
60060;SDS011;45933;51.336;12.612;2024-03-08T12:56:09;26.67;;;21.52;;
60060;SDS011;45933;51.336;12.612;2024-03-08T12:58:35;25.73;;;21.42;;
60060;SDS011;45933;51.336;12.612;2024-03-08T13:01:02;24.63;;;20.30;;
60060;SDS011;45933;51.336;12.612;2024-03-08T13:03:32;24.65;;;20.60;;
60060;SDS011;45933;51.336;12.612;2024-03-08T13:05:57;26.75;;;21.60;;
60060;SDS011;45933;51.336;12.612;2024-03-08T13:08:23;29.77;;;22.95;;
60060;SDS011;45933;51.336;12.612;2024-03-08T13:10:51;25.25;;;21.80;;
60060;SDS011;45933;51.336;12.612;2024-03-08T13:13:16;23.48;;;20.90;;
60060;SDS011;45933;51.336;12.612;2024-03-08T13:15:44;24.42;;;20.55;;
60060;SDS011;45933;51.336;12.612;2024-03-08T13:18:10;27.70;;;21.92;;
60060;SDS011;45933;51.336;12.612;2024-03-08T13:20:36;26.63;;;22.42;;
60060;SDS011;45933;51.336;12.612;2024-03-08T13:23:04;26.45;;;22.05;;
60060;SDS011;45933;51.336;12.612;2024-03-08T13:25:30;23.90;;;20.95;;
60060;SDS011;45933;51.336;12.612;2024-03-08T13:27:56;24.80;;;21.55;;
60060;SDS011;45933;51.336;12.612;2024-03-08T13:30:24;27.42;;;21.63;;
60060;SDS011;45933;51.336;12.612;2024-03-08T13:32:51;24.45;;;20.05;;
60060;SDS011;45933;51.336;12.612;2024-03-08T13:35:19;26.42;;;21.88;;
60060;SDS011;45933;51.336;12.612;2024-03-08T13:37:49;26.02;;;22.15;;
60060;SDS011;45933;51.336;12.612;2024-03-08T13:40:16;24.98;;;20.95;;
60060;SDS011;45933;51.336;12.612;2024-03-08T13:42:43;26.25;;;21.45;;
60060;SDS011;45933;51.336;12.612;2024-03-08T13:45:09;26.90;;;21.88;;
60060;SDS011;45933;51.336;12.612;2024-03-08T13:47:39;25.42;;;21.33;;
60060;SDS011;45933;51.336;12.612;2024-03-08T13:50:06;28.17;;;21.67;;
60060;SDS011;45933;51.336;12.612;2024-03-08T13:52:38;25.70;;;21.15;;
60060;SDS011;45933;51.336;12.612;2024-03-08T13:55:04;28.00;;;21.20;;
60060;SDS011;45933;51.336;12.612;2024-03-08T13:57:30;28.48;;;22.85;;
60060;SDS011;45933;51.336;12.612;2024-03-08T13:59:57;25.83;;;21.83;;
60060;SDS011;45933;51.336;12.612;2024-03-08T14:02:22;27.70;;;22.98;;
60060;SDS011;45933;51.336;12.612;2024-03-08T14:04:52;28.80;;;22.30;;
60060;SDS011;45933;51.336;12.612;2024-03-08T14:07:18;26.23;;;21.05;;
60060;SDS011;45933;51.336;12.612;2024-03-08T14:09:43;25.63;;;21.10;;
60060;SDS011;45933;51.336;12.612;2024-03-08T14:12:09;29.42;;;21.63;;
60060;SDS011;45933;51.336;12.612;2024-03-08T14:14:35;28.00;;;20.27;;